sensor_id;sensor_type;location;lat;lon;timestamp;pressure;altitude;pressure_sealevel;temperature;humidity
76460;BME280;65299;46.084;18.762;2023-03-19T00:01:50;100914.38;;;5.63;62.00
76460;BME280;65299;46.084;18.762;2023-03-19T00:04:51;100916.25;;;5.56;62.04
76460;BME280;65299;46.084;18.762;2023-03-19T00:07:51;100917.28;;;5.55;62.13
76460;BME280;65299;46.084;18.762;2023-03-19T00:10:52;100918.72;;;5.51;62.95
76460;BME280;65299;46.084;18.762;2023-03-19T00:13:52;100914.00;;;5.60;62.44
76460;BME280;65299;46.084;18.762;2023-03-19T00:16:53;100921.47;;;5.63;62.27
76460;BME280;65299;46.084;18.762;2023-03-19T00:19:53;100912.19;;;5.54;62.37
76460;BME280;65299;46.084;18.762;2023-03-19T00:22:53;100910.69;;;5.40;63.02
76460;BME280;65299;46.084;18.762;2023-03-19T00:25:54;100907.16;;;5.52;62.84
76460;BME280;65299;46.084;18.762;2023-03-19T00:28:55;100906.94;;;5.54;62.37
76460;BME280;65299;46.084;18.762;2023-03-19T00:31:56;100917.47;;;5.54;62.35
76460;BME280;65299;46.084;18.762;2023-03-19T00:34:56;100929.63;;;5.55;62.64
76460;BME280;65299;46.084;18.762;2023-03-19T00:37:57;100937.00;;;5.40;62.65
76460;BME280;65299;46.084;18.762;2023-03-19T00:40:57;100926.78;;;5.56;62.05
76460;BME280;65299;46.084;18.762;2023-03-19T00:43:58;100926.47;;;5.40;62.18
76460;BME280;65299;46.084;18.762;2023-03-19T00:46:59;100922.72;;;5.29;62.41
76460;BME280;65299;46.084;18.762;2023-03-19T00:49:59;100922.59;;;5.18;62.90
76460;BME280;65299;46.084;18.762;2023-03-19T00:53:00;100913.84;;;5.24;61.76
76460;BME280;65299;46.084;18.762;2023-03-19T00:56:00;100914.50;;;4.81;63.67
76460;BME280;65299;46.084;18.762;2023-03-19T00:59:01;100911.09;;;4.74;63.54
76460;BME280;65299;46.084;18.762;2023-03-19T01:02:02;100901.00;;;4.65;64.23
76460;BME280;65299;46.084;18.762;2023-03-19T01:05:03;100902.41;;;4.74;63.51
76460;BME280;65299;46.084;18.762;2023-03-19T01:08:03;100905.25;;;4.72;63.46
76460;BME280;65299;46.084;18.762;2023-03-19T01:11:13;100899.47;;;4.44;64.08
76460;BME280;65299;46.084;18.762;2023-03-19T01:14:15;100898.28;;;4.40;64.25
76460;BME280;65299;46.084;18.762;2023-03-19T01:17:16;100887.59;;;4.29;64.85
76460;BME280;65299;46.084;18.762;2023-03-19T01:20:16;100882.94;;;4.31;65.02
76460;BME280;65299;46.084;18.762;2023-03-19T01:23:18;100881.38;;;4.23;65.05
76460;BME280;65299;46.084;18.762;2023-03-19T01:26:18;100883.63;;;4.13;65.11
76460;BME280;65299;46.084;18.762;2023-03-19T01:29:19;100878.16;;;4.14;64.92
76460;BME280;65299;46.084;18.762;2023-03-19T01:32:19;100878.56;;;4.11;64.97
76460;BME280;65299;46.084;18.762;2023-03-19T01:35:20;100871.25;;;4.20;64.83
76460;BME280;65299;46.084;18.762;2023-03-19T01:38:21;100874.50;;;4.22;64.93
76460;BME280;65299;46.084;18.762;2023-03-19T01:41:22;100873.50;;;4.23;64.83
76460;BME280;65299;46.084;18.762;2023-03-19T01:44:23;100869.97;;;4.42;63.96
76460;BME280;65299;46.084;18.762;2023-03-19T01:47:36;100865.91;;;4.46;64.34
76460;BME280;65299;46.084;18.762;2023-03-19T01:50:43;100864.09;;;4.47;64.18
76460;BME280;65299;46.084;18.762;2023-03-19T01:53:49;100872.22;;;4.39;64.62
76460;BME280;65299;46.084;18.762;2023-03-19T01:56:58;100876.88;;;4.37;64.70
76460;BME280;65299;46.084;18.762;2023-03-19T02:00:00;100877.91;;;4.29;64.92
76460;BME280;65299;46.084;18.762;2023-03-19T02:03:01;100878.31;;;4.26;65.48
76460;BME280;65299;46.084;18.762;2023-03-19T02:06:02;100878.91;;;4.28;64.24
76460;BME280;65299;46.084;18.762;2023-03-19T02:09:02;100872.97;;;3.95;65.38
76460;BME280;65299;46.084;18.762;2023-03-19T02:12:03;100874.75;;;4.01;64.78
76460;BME280;65299;46.084;18.762;2023-03-19T02:15:05;100870.72;;;4.05;64.79
76460;BME280;65299;46.084;18.762;2023-03-19T02:18:06;100875.16;;;4.04;64.93
76460;BME280;65299;46.084;18.762;2023-03-19T02:21:10;100865.47;;;4.05;64.73
76460;BME280;65299;46.084;18.762;2023-03-19T02:24:27;100871.50;;;4.05;64.89
76460;BME280;65299;46.084;18.762;2023-03-19T02:27:30;100860.81;;;4.00;64.91
76460;BME280;65299;46.084;18.762;2023-03-19T02:30:32;100855.56;;;3.94;64.92
76460;BME280;65299;46.084;18.762;2023-03-19T02:33:33;100847.53;;;3.89;65.26
76460;BME280;65299;46.084;18.762;2023-03-19T02:36:39;100848.91;;;3.85;65.08
76460;BME280;65299;46.084;18.762;2023-03-19T02:42:48;100843.88;;;3.90;64.36
76460;BME280;65299;46.084;18.762;2023-03-19T02:45:49;100844.69;;;3.71;65.24
76460;BME280;65299;46.084;18.762;2023-03-19T02:48:50;100838.25;;;3.67;65.47
76460;BME280;65299;46.084;18.762;2023-03-19T02:51:51;100841.09;;;3.72;65.79
76460;BME280;65299;46.084;18.762;2023-03-19T02:54:52;100837.03;;;3.82;65.31
76460;BME280;65299;46.084;18.762;2023-03-19T02:57:52;100833.38;;;3.83;65.41
76460;BME280;65299;46.084;18.762;2023-03-19T03:00:53;100831.78;;;3.89;65.15
76460;BME280;65299;46.084;18.762;2023-03-19T03:03:54;100828.13;;;3.90;64.87
76460;BME280;65299;46.084;18.762;2023-03-19T03:06:54;100835.59;;;3.93;65.20
76460;BME280;65299;46.084;18.762;2023-03-19T03:09:55;100840.44;;;3.83;65.74
76460;BME280;65299;46.084;18.762;2023-03-19T03:12:56;100845.28;;;3.92;65.80
76460;BME280;65299;46.084;18.762;2023-03-19T03:15:56;100842.22;;;4.02;65.51
76460;BME280;65299;46.084;18.762;2023-03-19T03:18:59;100850.09;;;4.02;65.43
76460;BME280;65299;46.084;18.762;2023-03-19T03:21:59;100850.31;;;3.94;65.59
76460;BME280;65299;46.084;18.762;2023-03-19T03:25:00;100855.41;;;3.82;66.12
76460;BME280;65299;46.084;18.762;2023-03-19T03:28:01;100847.91;;;3.86;65.43
76460;BME280;65299;46.084;18.762;2023-03-19T03:31:02;100854.63;;;3.56;66.34
76460;BME280;65299;46.084;18.762;2023-03-19T03:34:03;100876.63;;;3.74;65.27
76460;BME280;65299;46.084;18.762;2023-03-19T03:37:03;100864.31;;;3.49;65.04
76460;BME280;65299;46.084;18.762;2023-03-19T03:40:05;100875.59;;;3.23;65.42
76460;BME280;65299;46.084;18.762;2023-03-19T03:43:07;100869.34;;;3.17;64.43
76460;BME280;65299;46.084;18.762;2023-03-19T03:46:09;100876.72;;;2.81;65.71
76460;BME280;65299;46.084;18.762;2023-03-19T03:49:09;100876.91;;;2.67;66.05
76460;BME280;65299;46.084;18.762;2023-03-19T03:52:10;100881.53;;;2.65;66.12
76460;BME280;65299;46.084;18.762;2023-03-19T03:55:11;100868.84;;;2.68;65.26
76460;BME280;65299;46.084;18.762;2023-03-19T03:58:11;100875.16;;;2.33;66.58
76460;BME280;65299;46.084;18.762;2023-03-19T04:01:16;100868.34;;;2.04;67.03
76460;BME280;65299;46.084;18.762;2023-03-19T04:04:17;100875.78;;;2.01;67.63
76460;BME280;65299;46.084;18.762;2023-03-19T04:07:19;100870.94;;;1.98;67.82
76460;BME280;65299;46.084;18.762;2023-03-19T04:10:19;100872.84;;;2.17;67.16
76460;BME280;65299;46.084;18.762;2023-03-19T04:13:20;100882.16;;;2.19;67.25
76460;BME280;65299;46.084;18.762;2023-03-19T04:16:21;100873.06;;;2.15;66.99
76460;BME280;65299;46.084;18.762;2023-03-19T04:19:21;100879.13;;;2.16;67.03
76460;BME280;65299;46.084;18.762;2023-03-19T04:22:22;100883.56;;;1.88;67.96
76460;BME280;65299;46.084;18.762;2023-03-19T04:25:22;100881.38;;;1.91;67.67
76460;BME280;65299;46.084;18.762;2023-03-19T04:28:23;100882.91;;;2.13;66.98
76460;BME280;65299;46.084;18.762;2023-03-19T04:31:23;100882.25;;;2.05;67.04
76460;BME280;65299;46.084;18.762;2023-03-19T04:34:24;100875.53;;;1.89;67.26
76460;BME280;65299;46.084;18.762;2023-03-19T04:37:25;100877.69;;;1.86;67.30
76460;BME280;65299;46.084;18.762;2023-03-19T04:40:26;100877.94;;;1.63;67.73
76460;BME280;65299;46.084;18.762;2023-03-19T04:43:27;100871.38;;;1.74;67.92
76460;BME280;65299;46.084;18.762;2023-03-19T04:46:27;100871.31;;;1.60;67.97
76460;BME280;65299;46.084;18.762;2023-03-19T04:49:28;100873.09;;;1.60;68.16
76460;BME280;65299;46.084;18.762;2023-03-19T04:52:30;100866.28;;;1.65;68.33
76460;BME280;65299;46.084;18.762;2023-03-19T04:55:31;100862.59;;;1.81;67.96
76460;BME280;65299;46.084;18.762;2023-03-19T04:58:31;100859.69;;;1.69;68.03
76460;BME280;65299;46.084;18.762;2023-03-19T05:01:32;100860.69;;;1.68;67.37
76460;BME280;65299;46.084;18.762;2023-03-19T05:04:32;100859.47;;;1.71;67.55
76460;BME280;65299;46.084;18.762;2023-03-19T05:07:33;100864.91;;;1.69;67.84
76460;BME280;65299;46.084;18.762;2023-03-19T05:10:34;100857.63;;;1.65;68.15
76460;BME280;65299;46.084;18.762;2023-03-19T05:13:35;100865.06;;;1.89;66.81
76460;BME280;65299;46.084;18.762;2023-03-19T05:16:36;100868.47;;;1.90;66.71
76460;BME280;65299;46.084;18.762;2023-03-19T05:19:37;100870.94;;;1.98;66.81
76460;BME280;65299;46.084;18.762;2023-03-19T05:22:38;100879.84;;;2.10;66.38
76460;BME280;65299;46.084;18.762;2023-03-19T05:25:39;100883.34;;;2.17;66.21
76460;BME280;65299;46.084;18.762;2023-03-19T05:28:39;100886.66;;;2.32;65.75
76460;BME280;65299;46.084;18.762;2023-03-19T05:31:40;100882.00;;;2.00;66.50
76460;BME280;65299;46.084;18.762;2023-03-19T05:34:40;100884.00;;;2.25;65.72
76460;BME280;65299;46.084;18.762;2023-03-19T05:37:41;100875.47;;;2.17;65.74
76460;BME280;65299;46.084;18.762;2023-03-19T05:40:42;100867.38;;;2.05;65.87
76460;BME280;65299;46.084;18.762;2023-03-19T05:43:42;100881.38;;;1.91;66.49
76460;BME280;65299;46.084;18.762;2023-03-19T05:46:43;100880.59;;;2.31;65.94
76460;BME280;65299;46.084;18.762;2023-03-19T05:49:43;100889.09;;;2.40;65.34
76460;BME280;65299;46.084;18.762;2023-03-19T05:52:44;100884.22;;;2.37;65.81
76460;BME280;65299;46.084;18.762;2023-03-19T05:55:44;100877.88;;;2.59;65.40
76460;BME280;65299;46.084;18.762;2023-03-19T05:58:45;100883.59;;;2.82;64.91
76460;BME280;65299;46.084;18.762;2023-03-19T06:01:46;100883.50;;;3.29;63.77
76460;BME280;65299;46.084;18.762;2023-03-19T06:04:46;100875.81;;;3.61;62.16
76460;BME280;65299;46.084;18.762;2023-03-19T06:07:46;100884.88;;;3.78;62.91
76460;BME280;65299;46.084;18.762;2023-03-19T06:10:47;100893.91;;;4.21;62.37
76460;BME280;65299;46.084;18.762;2023-03-19T06:13:47;100892.28;;;4.20;63.11
76460;BME280;65299;46.084;18.762;2023-03-19T06:16:48;100896.13;;;4.68;61.96
76460;BME280;65299;46.084;18.762;2023-03-19T06:19:48;100896.91;;;4.82;61.91
76460;BME280;65299;46.084;18.762;2023-03-19T06:22:49;100896.19;;;4.99;61.60
76460;BME280;65299;46.084;18.762;2023-03-19T06:25:49;100900.47;;;4.94;61.55
76460;BME280;65299;46.084;18.762;2023-03-19T06:28:50;100898.50;;;5.21;60.42
76460;BME280;65299;46.084;18.762;2023-03-19T06:31:51;100905.25;;;5.03;61.20
76460;BME280;65299;46.084;18.762;2023-03-19T06:34:52;100905.63;;;5.07;60.66
76460;BME280;65299;46.084;18.762;2023-03-19T06:37:52;100912.06;;;5.18;61.27
76460;BME280;65299;46.084;18.762;2023-03-19T06:40:53;100915.94;;;5.15;60.72
76460;BME280;65299;46.084;18.762;2023-03-19T06:43:53;100924.22;;;5.19;60.34
76460;BME280;65299;46.084;18.762;2023-03-19T06:46:54;100925.81;;;5.20;60.82
76460;BME280;65299;46.084;18.762;2023-03-19T06:49:54;100922.03;;;5.65;59.63
76460;BME280;65299;46.084;18.762;2023-03-19T06:52:55;100933.94;;;5.74;59.49
76460;BME280;65299;46.084;18.762;2023-03-19T06:55:56;100933.22;;;5.60;59.34
76460;BME280;65299;46.084;18.762;2023-03-19T06:58:56;100918.50;;;5.84;59.52
76460;BME280;65299;46.084;18.762;2023-03-19T07:01:56;100926.69;;;5.94;59.04
76460;BME280;65299;46.084;18.762;2023-03-19T07:04:57;100925.69;;;6.13;59.01
76460;BME280;65299;46.084;18.762;2023-03-19T07:07:58;100930.53;;;6.16;59.31
76460;BME280;65299;46.084;18.762;2023-03-19T07:11:05;100925.28;;;6.34;58.66
76460;BME280;65299;46.084;18.762;2023-03-19T07:14:06;100925.69;;;6.31;58.52
76460;BME280;65299;46.084;18.762;2023-03-19T07:17:06;100923.69;;;6.51;58.44
76460;BME280;65299;46.084;18.762;2023-03-19T07:20:07;100919.56;;;6.74;57.32
76460;BME280;65299;46.084;18.762;2023-03-19T07:23:08;100928.44;;;6.91;56.84
76460;BME280;65299;46.084;18.762;2023-03-19T07:26:08;100927.41;;;7.21;56.46
76460;BME280;65299;46.084;18.762;2023-03-19T07:29:11;100927.81;;;7.36;55.81
76460;BME280;65299;46.084;18.762;2023-03-19T07:32:11;100923.72;;;7.52;55.98
76460;BME280;65299;46.084;18.762;2023-03-19T07:35:12;100929.03;;;7.87;55.31
76460;BME280;65299;46.084;18.762;2023-03-19T07:38:13;100935.25;;;7.92;55.25
76460;BME280;65299;46.084;18.762;2023-03-19T07:41:14;100936.16;;;7.86;54.54
76460;BME280;65299;46.084;18.762;2023-03-19T07:44:15;100937.53;;;7.89;54.71
76460;BME280;65299;46.084;18.762;2023-03-19T07:47:15;100936.16;;;7.86;55.38
76460;BME280;65299;46.084;18.762;2023-03-19T07:50:16;100944.69;;;8.34;54.10
76460;BME280;65299;46.084;18.762;2023-03-19T07:53:16;100940.06;;;8.42;53.08
76460;BME280;65299;46.084;18.762;2023-03-19T07:56:17;100944.03;;;8.79;53.63
76460;BME280;65299;46.084;18.762;2023-03-19T07:59:18;100947.00;;;8.82;53.15
76460;BME280;65299;46.084;18.762;2023-03-19T08:02:18;100941.63;;;9.05;52.62
76460;BME280;65299;46.084;18.762;2023-03-19T08:05:19;100952.34;;;9.27;52.02
76460;BME280;65299;46.084;18.762;2023-03-19T08:08:19;100949.44;;;9.12;52.16
76460;BME280;65299;46.084;18.762;2023-03-19T08:11:20;100940.94;;;8.70;52.58
76460;BME280;65299;46.084;18.762;2023-03-19T08:14:21;100938.53;;;8.69;52.78
76460;BME280;65299;46.084;18.762;2023-03-19T08:17:22;100939.81;;;8.66;52.79
76460;BME280;65299;46.084;18.762;2023-03-19T08:20:23;100939.75;;;8.78;52.64
76460;BME280;65299;46.084;18.762;2023-03-19T08:23:23;100947.00;;;9.10;51.94
76460;BME280;65299;46.084;18.762;2023-03-19T08:26:23;100946.59;;;9.30;52.20
76460;BME280;65299;46.084;18.762;2023-03-19T08:29:24;100950.22;;;9.57;51.52
76460;BME280;65299;46.084;18.762;2023-03-19T08:32:26;100949.09;;;9.53;50.94
76460;BME280;65299;46.084;18.762;2023-03-19T08:35:27;100951.91;;;9.63;51.07
76460;BME280;65299;46.084;18.762;2023-03-19T08:38:27;100943.41;;;9.94;50.24
76460;BME280;65299;46.084;18.762;2023-03-19T08:41:28;100952.03;;;9.85;50.93
76460;BME280;65299;46.084;18.762;2023-03-19T08:44:28;100941.06;;;9.98;50.22
76460;BME280;65299;46.084;18.762;2023-03-19T08:47:29;100941.41;;;10.01;49.31
76460;BME280;65299;46.084;18.762;2023-03-19T08:50:30;100951.31;;;10.44;48.68
76460;BME280;65299;46.084;18.762;2023-03-19T08:53:32;100943.84;;;10.63;48.17
76460;BME280;65299;46.084;18.762;2023-03-19T08:56:32;100949.28;;;10.30;49.31
76460;BME280;65299;46.084;18.762;2023-03-19T08:59:33;100943.38;;;10.66;48.07
76460;BME280;65299;46.084;18.762;2023-03-19T09:02:33;100939.47;;;10.73;47.92
76460;BME280;65299;46.084;18.762;2023-03-19T09:05:34;100936.38;;;11.03;47.60
76460;BME280;65299;46.084;18.762;2023-03-19T09:08:36;100932.53;;;10.94;47.72
76460;BME280;65299;46.084;18.762;2023-03-19T09:11:36;100941.34;;;11.21;46.49
76460;BME280;65299;46.084;18.762;2023-03-19T09:14:37;100933.28;;;11.43;45.98
76460;BME280;65299;46.084;18.762;2023-03-19T09:17:39;100937.25;;;11.40;45.78
76460;BME280;65299;46.084;18.762;2023-03-19T09:20:39;100942.16;;;11.80;45.14
76460;BME280;65299;46.084;18.762;2023-03-19T09:23:40;100937.66;;;11.86;44.42
76460;BME280;65299;46.084;18.762;2023-03-19T09:26:40;100940.44;;;12.01;44.29
76460;BME280;65299;46.084;18.762;2023-03-19T09:29:41;100929.97;;;12.31;43.54
76460;BME280;65299;46.084;18.762;2023-03-19T09:32:41;100934.75;;;12.29;43.74
76460;BME280;65299;46.084;18.762;2023-03-19T09:35:42;100932.16;;;12.39;44.62
76460;BME280;65299;46.084;18.762;2023-03-19T09:38:43;100929.84;;;12.58;43.54
76460;BME280;65299;46.084;18.762;2023-03-19T09:41:59;100932.91;;;12.96;43.65
76460;BME280;65299;46.084;18.762;2023-03-19T09:45:03;100929.72;;;12.99;43.52
76460;BME280;65299;46.084;18.762;2023-03-19T09:48:06;100932.97;;;13.06;43.45
76460;BME280;65299;46.084;18.762;2023-03-19T09:51:18;100926.34;;;13.29;43.12
76460;BME280;65299;46.084;18.762;2023-03-19T09:57:27;100933.03;;;13.72;43.19
76460;BME280;65299;46.084;18.762;2023-03-19T10:00:32;100925.03;;;13.32;42.24
76460;BME280;65299;46.084;18.762;2023-03-19T10:03:45;100927.69;;;13.77;42.32
76460;BME280;65299;46.084;18.762;2023-03-19T10:06:58;100916.72;;;13.93;41.82
76460;BME280;65299;46.084;18.762;2023-03-19T10:16:26;100904.38;;;14.38;41.02
76460;BME280;65299;46.084;18.762;2023-03-19T10:19:37;100892.91;;;14.22;42.09
76460;BME280;65299;46.084;18.762;2023-03-19T10:22:46;100893.97;;;14.26;42.48
76460;BME280;65299;46.084;18.762;2023-03-19T10:25:52;100889.91;;;14.49;41.06
76460;BME280;65299;46.084;18.762;2023-03-19T10:29:10;100872.72;;;14.70;41.93
76460;BME280;65299;46.084;18.762;2023-03-19T10:38:23;100873.13;;;14.92;40.71
76460;BME280;65299;46.084;18.762;2023-03-19T10:44:55;100881.09;;;14.97;40.61
76460;BME280;65299;46.084;18.762;2023-03-19T10:48:00;100867.22;;;14.95;41.43
76460;BME280;65299;46.084;18.762;2023-03-19T10:51:04;100871.81;;;14.84;41.05
76460;BME280;65299;46.084;18.762;2023-03-19T10:54:21;100853.63;;;14.86;40.30
76460;BME280;65299;46.084;18.762;2023-03-19T10:57:26;100860.16;;;15.09;40.67
76460;BME280;65299;46.084;18.762;2023-03-19T11:00:29;100868.75;;;15.45;40.98
76460;BME280;65299;46.084;18.762;2023-03-19T11:03:33;100856.88;;;15.22;39.19
76460;BME280;65299;46.084;18.762;2023-03-19T11:06:35;100856.50;;;15.34;39.52
76460;BME280;65299;46.084;18.762;2023-03-19T11:09:41;100855.41;;;15.68;38.82
76460;BME280;65299;46.084;18.762;2023-03-19T11:12:52;100849.75;;;15.41;39.15
76460;BME280;65299;46.084;18.762;2023-03-19T11:15:58;100847.34;;;15.40;39.08
76460;BME280;65299;46.084;18.762;2023-03-19T11:18:59;100845.75;;;15.44;40.40
76460;BME280;65299;46.084;18.762;2023-03-19T11:22:01;100845.19;;;15.42;39.46
76460;BME280;65299;46.084;18.762;2023-03-19T11:25:14;100838.63;;;15.63;38.38
76460;BME280;65299;46.084;18.762;2023-03-19T11:28:23;100832.66;;;15.71;38.18
76460;BME280;65299;46.084;18.762;2023-03-19T11:35:10;100814.09;;;16.03;37.11
76460;BME280;65299;46.084;18.762;2023-03-19T11:38:26;100800.25;;;16.20;37.24
76460;BME280;65299;46.084;18.762;2023-03-19T11:50:59;100789.38;;;15.64;37.26
76460;BME280;65299;46.084;18.762;2023-03-19T11:54:34;100789.25;;;16.40;38.09
76460;BME280;65299;46.084;18.762;2023-03-19T11:58:14;100785.88;;;16.72;36.42
76460;BME280;65299;46.084;18.762;2023-03-19T12:01:51;100782.63;;;16.75;35.55
76460;BME280;65299;46.084;18.762;2023-03-19T12:05:11;100793.72;;;17.19;35.41
76460;BME280;65299;46.084;18.762;2023-03-19T12:08:36;100790.44;;;17.22;36.28
76460;BME280;65299;46.084;18.762;2023-03-19T12:12:12;100781.34;;;17.36;35.15
76460;BME280;65299;46.084;18.762;2023-03-19T12:28:26;100761.31;;;16.83;33.79
76460;BME280;65299;46.084;18.762;2023-03-19T12:35:13;100742.53;;;17.02;34.15
76460;BME280;65299;46.084;18.762;2023-03-19T12:38:23;100737.94;;;17.02;33.57
76460;BME280;65299;46.084;18.762;2023-03-19T12:41:27;100734.19;;;17.03;33.97
76460;BME280;65299;46.084;18.762;2023-03-19T12:44:36;100721.88;;;17.16;34.27
76460;BME280;65299;46.084;18.762;2023-03-19T12:47:39;100712.34;;;17.37;33.15
76460;BME280;65299;46.084;18.762;2023-03-19T12:50:43;100714.03;;;17.33;33.40
76460;BME280;65299;46.084;18.762;2023-03-19T12:57:25;100709.16;;;17.67;32.33
76460;BME280;65299;46.084;18.762;2023-03-19T13:00:36;100700.16;;;17.45;32.72
76460;BME280;65299;46.084;18.762;2023-03-19T13:03:58;100707.66;;;17.61;31.75
76460;BME280;65299;46.084;18.762;2023-03-19T13:07:09;100700.16;;;17.85;32.05
76460;BME280;65299;46.084;18.762;2023-03-19T13:10:17;100692.41;;;17.70;32.04
76460;BME280;65299;46.084;18.762;2023-03-19T13:20:49;100685.91;;;18.12;31.24
76460;BME280;65299;46.084;18.762;2023-03-19T13:24:01;100686.53;;;17.95;31.85
76460;BME280;65299;46.084;18.762;2023-03-19T13:27:06;100678.75;;;18.30;33.90
76460;BME280;65299;46.084;18.762;2023-03-19T13:33:20;100674.91;;;18.22;30.78
76460;BME280;65299;46.084;18.762;2023-03-19T13:36:26;100680.41;;;18.53;33.72
76460;BME280;65299;46.084;18.762;2023-03-19T13:39:30;100672.31;;;18.75;33.00
76460;BME280;65299;46.084;18.762;2023-03-19T13:42:39;100664.69;;;18.33;31.49
76460;BME280;65299;46.084;18.762;2023-03-19T13:45:42;100674.06;;;18.35;31.39
76460;BME280;65299;46.084;18.762;2023-03-19T13:51:46;100667.66;;;17.87;31.57
76460;BME280;65299;46.084;18.762;2023-03-19T13:54:51;100666.38;;;18.20;30.92
76460;BME280;65299;46.084;18.762;2023-03-19T13:58:17;100668.19;;;18.69;31.47
76460;BME280;65299;46.084;18.762;2023-03-19T14:01:39;100664.28;;;18.83;31.01
76460;BME280;65299;46.084;18.762;2023-03-19T14:05:02;100663.78;;;18.73;31.07
76460;BME280;65299;46.084;18.762;2023-03-19T14:08:19;100649.84;;;18.71;30.66
76460;BME280;65299;46.084;18.762;2023-03-19T14:11:24;100649.88;;;18.49;30.88
76460;BME280;65299;46.084;18.762;2023-03-19T14:14:28;100644.38;;;18.40;30.73
76460;BME280;65299;46.084;18.762;2023-03-19T14:20:57;100644.53;;;18.57;29.88
76460;BME280;65299;46.084;18.762;2023-03-19T14:27:31;100633.59;;;18.54;29.55
76460;BME280;65299;46.084;18.762;2023-03-19T14:30:44;100633.72;;;18.71;29.50
76460;BME280;65299;46.084;18.762;2023-03-19T14:33:51;100626.06;;;18.95;30.37
76460;BME280;65299;46.084;18.762;2023-03-19T14:40:29;100620.59;;;18.78;30.17
76460;BME280;65299;46.084;18.762;2023-03-19T14:44:12;100620.22;;;19.32;30.63
76460;BME280;65299;46.084;18.762;2023-03-19T14:47:44;100620.22;;;18.93;29.56
76460;BME280;65299;46.084;18.762;2023-03-19T14:53:57;100615.53;;;18.76;30.03
76460;BME280;65299;46.084;18.762;2023-03-19T14:57:14;100620.91;;;18.76;31.05
76460;BME280;65299;46.084;18.762;2023-03-19T15:00:17;100613.06;;;18.36;30.57
76460;BME280;65299;46.084;18.762;2023-03-19T15:06:32;100615.31;;;18.20;31.65
76460;BME280;65299;46.084;18.762;2023-03-19T15:09:33;100616.16;;;18.07;32.33
76460;BME280;65299;46.084;18.762;2023-03-19T15:12:45;100605.97;;;18.40;33.39
76460;BME280;65299;46.084;18.762;2023-03-19T15:18:59;100611.28;;;18.09;33.72
76460;BME280;65299;46.084;18.762;2023-03-19T15:22:14;100601.09;;;18.19;32.12
76460;BME280;65299;46.084;18.762;2023-03-19T15:25:18;100602.78;;;17.93;33.37
76460;BME280;65299;46.084;18.762;2023-03-19T15:28:19;100600.19;;;17.88;33.20
76460;BME280;65299;46.084;18.762;2023-03-19T15:31:19;100600.47;;;17.65;33.55
76460;BME280;65299;46.084;18.762;2023-03-19T15:34:22;100606.81;;;18.04;33.81
76460;BME280;65299;46.084;18.762;2023-03-19T15:37:23;100609.47;;;17.82;34.34
76460;BME280;65299;46.084;18.762;2023-03-19T15:40:27;100602.81;;;17.80;33.69
76460;BME280;65299;46.084;18.762;2023-03-19T15:43:29;100605.81;;;17.78;33.22
76460;BME280;65299;46.084;18.762;2023-03-19T15:46:32;100613.13;;;17.86;33.65
76460;BME280;65299;46.084;18.762;2023-03-19T15:49:37;100619.63;;;17.85;34.18
76460;BME280;65299;46.084;18.762;2023-03-19T15:52:42;100608.44;;;17.56;34.44
76460;BME280;65299;46.084;18.762;2023-03-19T15:55:47;100609.22;;;17.43;34.02
76460;BME280;65299;46.084;18.762;2023-03-19T15:58:51;100615.78;;;17.37;33.53
76460;BME280;65299;46.084;18.762;2023-03-19T16:02:02;100622.66;;;17.57;34.80
76460;BME280;65299;46.084;18.762;2023-03-19T16:05:03;100616.53;;;17.78;33.88
76460;BME280;65299;46.084;18.762;2023-03-19T16:08:17;100616.19;;;17.58;33.74
76460;BME280;65299;46.084;18.762;2023-03-19T16:11:28;100624.63;;;17.24;35.37
76460;BME280;65299;46.084;18.762;2023-03-19T16:17:33;100626.31;;;17.06;35.09
76460;BME280;65299;46.084;18.762;2023-03-19T16:20:40;100628.09;;;16.84;35.58
76460;BME280;65299;46.084;18.762;2023-03-19T16:23:44;100631.09;;;16.96;35.57
76460;BME280;65299;46.084;18.762;2023-03-19T16:26:49;100632.66;;;16.83;35.91
76460;BME280;65299;46.084;18.762;2023-03-19T16:29:58;100631.50;;;16.38;37.89
76460;BME280;65299;46.084;18.762;2023-03-19T16:33:03;100635.63;;;16.31;37.80
76460;BME280;65299;46.084;18.762;2023-03-19T16:36:10;100632.25;;;16.07;37.75
76460;BME280;65299;46.084;18.762;2023-03-19T16:45:32;100645.47;;;16.35;37.79
76460;BME280;65299;46.084;18.762;2023-03-19T16:48:34;100648.97;;;16.17;37.40
76460;BME280;65299;46.084;18.762;2023-03-19T16:51:34;100637.03;;;15.91;37.70
76460;BME280;65299;46.084;18.762;2023-03-19T16:54:35;100645.41;;;15.85;38.04
76460;BME280;65299;46.084;18.762;2023-03-19T16:57:36;100646.06;;;15.95;38.69
76460;BME280;65299;46.084;18.762;2023-03-19T17:00:36;100651.44;;;15.95;38.82
76460;BME280;65299;46.084;18.762;2023-03-19T17:03:37;100662.13;;;15.95;39.92
76460;BME280;65299;46.084;18.762;2023-03-19T17:06:37;100666.63;;;15.81;41.30
76460;BME280;65299;46.084;18.762;2023-03-19T17:09:38;100662.03;;;15.63;40.80
76460;BME280;65299;46.084;18.762;2023-03-19T17:12:38;100662.09;;;15.58;41.34
76460;BME280;65299;46.084;18.762;2023-03-19T17:15:39;100667.28;;;15.49;41.87
76460;BME280;65299;46.084;18.762;2023-03-19T17:18:41;100665.63;;;15.53;42.54
76460;BME280;65299;46.084;18.762;2023-03-19T17:21:42;100668.94;;;15.45;43.08
76460;BME280;65299;46.084;18.762;2023-03-19T17:24:43;100669.88;;;15.31;43.39
76460;BME280;65299;46.084;18.762;2023-03-19T17:27:44;100670.44;;;15.28;43.76
76460;BME280;65299;46.084;18.762;2023-03-19T17:30:45;100662.00;;;15.16;43.55
76460;BME280;65299;46.084;18.762;2023-03-19T17:33:46;100661.47;;;15.19;43.75